createdAt,value
2023-02-11T00:01:39.150Z,-7.51
2023-02-11T00:04:08.149Z,-7.53
2023-02-11T00:06:36.818Z,-7.56
2023-02-11T00:09:06.347Z,-7.55
2023-02-11T00:11:35.058Z,-7.57
2023-02-11T00:14:07.940Z,-7.61
2023-02-11T00:16:36.546Z,-7.63
2023-02-11T00:19:06.545Z,-7.63
2023-02-11T00:21:35.537Z,-7.65
2023-02-11T00:24:04.182Z,-7.63
2023-02-11T00:26:34.700Z,-7.61
2023-02-11T00:29:03.456Z,-7.61
2023-02-11T00:31:33.711Z,-7.65
2023-02-11T00:34:02.384Z,-7.66
2023-02-11T00:36:31.076Z,-7.63
2023-02-11T00:38:59.724Z,-7.60
2023-02-11T00:41:29.988Z,-7.61
2023-02-11T00:44:02.069Z,-7.64
2023-02-11T00:46:30.410Z,-7.66
2023-02-11T00:48:59.344Z,-7.68
2023-02-11T00:51:28.993Z,-7.68
2023-02-11T00:53:57.731Z,-7.66
2023-02-11T00:56:26.800Z,-7.67
2023-02-11T00:58:55.016Z,-7.72
2023-02-11T01:01:23.974Z,-7.74
2023-02-11T01:03:52.408Z,-7.75
2023-02-11T01:06:21.102Z,-7.75
2023-02-11T01:08:49.397Z,-7.78
2023-02-11T01:11:20.267Z,-7.79
2023-02-11T01:13:50.139Z,-7.85
2023-02-11T01:16:20.369Z,-7.88
2023-02-11T01:18:49.056Z,-7.89
2023-02-11T01:21:19.474Z,-7.88
2023-02-11T01:23:48.080Z,-7.91
2023-02-11T01:26:16.895Z,-7.96
2023-02-11T01:28:45.459Z,-7.96
2023-02-11T01:31:14.601Z,-7.96
2023-02-11T01:33:43.249Z,-7.98
2023-02-11T01:36:12.366Z,-8.01
2023-02-11T01:38:41.469Z,-8.04
2023-02-11T01:41:12.698Z,-8.09
2023-02-11T01:43:48.347Z,-8.16
2023-02-11T01:46:38.720Z,-8.19
2023-02-11T01:49:12.792Z,-8.21
2023-02-11T01:51:56.907Z,-8.21
2023-02-11T01:54:47.584Z,-8.22
2023-02-11T01:57:22.946Z,-8.20
2023-02-11T02:00:24.449Z,-8.19
2023-02-11T02:03:03.000Z,-8.17
2023-02-11T02:05:47.164Z,-8.20
2023-02-11T02:08:37.924Z,-8.23
2023-02-11T02:11:06.669Z,-8.22
2023-02-11T02:13:36.092Z,-8.21
2023-02-11T02:16:13.132Z,-8.19
2023-02-11T02:18:49.074Z,-8.19
2023-02-11T02:21:32.592Z,-8.19
2023-02-11T02:24:31.984Z,-8.20
2023-02-11T02:27:15.679Z,-8.24
2023-02-11T02:29:55.559Z,-8.25
2023-02-11T02:32:51.676Z,-8.23
2023-02-11T02:35:40.842Z,-8.21
2023-02-11T02:38:30.813Z,-8.20
2023-02-11T02:41:07.544Z,-8.18
2023-02-11T02:43:40.753Z,-8.15
2023-02-11T02:46:20.136Z,-8.09
2023-02-11T02:48:49.943Z,-8.01
2023-02-11T02:51:40.016Z,-7.96
2023-02-11T02:54:37.365Z,-7.88
2023-02-11T02:57:39.115Z,-7.78
2023-02-11T03:00:17.519Z,-7.65
2023-02-11T03:03:01.057Z,-7.58
2023-02-11T03:05:45.092Z,-7.48
2023-02-11T03:08:37.943Z,-7.36
2023-02-11T03:11:09.285Z,-7.25
2023-02-11T03:13:40.246Z,-7.16
2023-02-11T03:16:14.088Z,-7.08
2023-02-11T03:18:48.691Z,-7.00
2023-02-11T03:21:18.587Z,-6.91
2023-02-11T03:23:54.090Z,-6.83
2023-02-11T03:26:37.455Z,-6.76
2023-02-11T03:29:28.663Z,-6.68
2023-02-11T03:32:16.279Z,-6.59
2023-02-11T03:35:24.784Z,-6.48
2023-02-11T03:37:56.135Z,-6.35
2023-02-11T03:40:32.112Z,-6.26
2023-02-11T03:43:07.366Z,-6.19
2023-02-11T03:45:37.589Z,-6.12
2023-02-11T03:48:23.757Z,-6.04
2023-02-11T03:50:54.387Z,-5.96
2023-02-11T03:53:23.973Z,-5.89
2023-02-11T03:55:55.458Z,-5.85
2023-02-11T03:58:24.250Z,-5.80
2023-02-11T04:00:52.582Z,-5.73
2023-02-11T04:03:21.063Z,-5.67
2023-02-11T04:05:49.742Z,-5.63
2023-02-11T04:08:18.400Z,-5.60
2023-02-11T04:10:47.096Z,-5.54
2023-02-11T04:13:15.580Z,-5.50
2023-02-11T04:15:44.168Z,-5.44
2023-02-11T04:18:12.349Z,-5.38
2023-02-11T04:20:40.731Z,-5.31
2023-02-11T04:23:09.021Z,-5.28
2023-02-11T04:25:37.413Z,-5.22
2023-02-11T04:28:05.604Z,-5.15
2023-02-11T04:30:34.065Z,-5.10
2023-02-11T04:33:02.247Z,-5.04
2023-02-11T04:35:30.638Z,-5.00
2023-02-11T04:37:58.929Z,-4.98
2023-02-11T04:40:27.203Z,-4.99
2023-02-11T04:42:55.993Z,-5.01
2023-02-11T04:45:24.588Z,-5.04
2023-02-11T04:47:52.980Z,-5.08
2023-02-11T04:50:21.572Z,-5.11
2023-02-11T04:52:50.760Z,-5.12
2023-02-11T04:55:19.555Z,-5.15
2023-02-11T04:57:47.728Z,-5.16
2023-02-11T05:00:16.916Z,-5.15
2023-02-11T05:02:45.222Z,-5.18
2023-02-11T05:05:14.109Z,-5.20
2023-02-11T05:07:42.393Z,-5.21
2023-02-11T05:10:10.876Z,-5.21
2023-02-11T05:12:39.465Z,-5.21
2023-02-11T05:15:08.367Z,-5.22
2023-02-11T05:17:36.644Z,-5.22
2023-02-11T05:20:05.421Z,-5.23
2023-02-11T05:22:33.619Z,-5.23
2023-02-11T05:25:01.818Z,-5.17
2023-02-11T05:27:30.196Z,-5.11
2023-02-11T05:29:58.466Z,-5.06
2023-02-11T05:32:26.648Z,-5.03
2023-02-11T05:34:55.233Z,-5.03
2023-02-11T05:37:24.328Z,-5.05
2023-02-11T05:39:52.727Z,-5.06
2023-02-11T05:42:21.104Z,-5.07
2023-02-11T05:44:50.685Z,-5.07
2023-02-11T05:47:19.203Z,-5.08
2023-02-11T05:49:47.694Z,-5.10
2023-02-11T05:52:16.084Z,-5.09
2023-02-11T05:54:44.567Z,-5.09
2023-02-11T05:57:13.461Z,-5.07
2023-02-11T05:59:42.066Z,-5.05
2023-02-11T06:02:11.080Z,-4.99
2023-02-11T06:04:39.754Z,-4.96
2023-02-11T06:07:08.125Z,-4.92
2023-02-11T06:09:37.302Z,-4.88
2023-02-11T06:12:05.621Z,-4.84
2023-02-11T06:14:34.394Z,-4.83
2023-02-11T06:17:02.969Z,-4.81
2023-02-11T06:19:31.475Z,-4.79
2023-02-11T06:21:59.770Z,-4.74
2023-02-11T06:24:48.100Z,-4.66
2023-02-11T06:27:16.490Z,-4.59
2023-02-11T06:29:46.489Z,-4.55
2023-02-11T06:32:36.879Z,-4.48
2023-02-11T06:35:03.130Z,-4.38
2023-02-11T06:37:31.523Z,-4.30
2023-02-11T06:40:00.207Z,-4.22
2023-02-11T06:42:28.587Z,-4.20
2023-02-11T06:44:56.980Z,-4.17
2023-02-11T06:47:25.331Z,-4.08
2023-02-11T06:49:53.638Z,-3.98
2023-02-11T06:52:22.128Z,-3.89
2023-02-11T06:54:50.918Z,-3.82
2023-02-11T06:57:19.312Z,-3.74
2023-02-11T06:59:47.588Z,-3.68
2023-02-11T07:02:16.089Z,-3.65
2023-02-11T07:04:45.481Z,-3.57
2023-02-11T07:07:13.761Z,-3.46
2023-02-11T07:09:42.266Z,-3.33
2023-02-11T07:12:10.946Z,-3.19
2023-02-11T07:14:40.475Z,-3.01
2023-02-11T07:17:08.739Z,-2.86
2023-02-11T07:19:37.231Z,-2.73
2023-02-11T07:22:05.503Z,-2.60
2023-02-11T07:24:33.680Z,-2.47
2023-02-11T07:27:02.065Z,-2.34
2023-02-11T07:29:30.551Z,-2.18
2023-02-11T07:31:58.831Z,-2.04
2023-02-11T07:34:27.360Z,-1.89
2023-02-11T07:36:55.608Z,-1.66
2023-02-11T07:39:27.577Z,-1.43
2023-02-11T07:41:57.005Z,-1.29
2023-02-11T07:44:25.573Z,-1.18
2023-02-11T07:46:53.780Z,-1.12
2023-02-11T07:49:22.544Z,-1.13
2023-02-11T07:51:51.603Z,-1.09
2023-02-11T07:54:19.927Z,-1.08
2023-02-11T07:56:48.526Z,-1.06
2023-02-11T07:59:17.203Z,-1.05
2023-02-11T08:01:45.752Z,-1.10
2023-02-11T08:04:14.286Z,-1.10
2023-02-11T08:06:43.796Z,-1.10
2023-02-11T08:09:16.878Z,-1.03
2023-02-11T08:11:45.780Z,-0.99
2023-02-11T08:14:14.001Z,-0.93
2023-02-11T08:16:42.352Z,-0.82
2023-02-11T08:19:13.806Z,-0.65
2023-02-11T08:21:42.796Z,-0.49
2023-02-11T08:24:11.578Z,-0.38
2023-02-11T08:26:39.971Z,-0.30
2023-02-11T08:29:11.517Z,-0.22
2023-02-11T08:31:43.032Z,-0.04
2023-02-11T08:34:14.346Z,0.15
2023-02-11T08:36:43.092Z,0.34
2023-02-11T08:39:20.508Z,0.54
2023-02-11T08:41:53.081Z,0.71
2023-02-11T08:44:23.022Z,0.93
2023-02-11T08:46:52.058Z,1.18
2023-02-11T08:49:21.225Z,1.33
2023-02-11T08:51:49.709Z,1.46
2023-02-11T08:54:18.510Z,1.54
2023-02-11T08:56:50.780Z,1.61
2023-02-11T08:59:19.575Z,1.75
2023-02-11T09:01:48.552Z,1.89
2023-02-11T09:04:17.050Z,2.07
2023-02-11T09:06:46.307Z,2.23
2023-02-11T09:09:16.178Z,2.44
2023-02-11T09:11:45.067Z,2.71
2023-02-11T09:14:19.810Z,2.94
2023-02-11T09:16:49.343Z,3.27
2023-02-11T09:19:18.518Z,3.83
2023-02-11T09:21:47.357Z,4.64
2023-02-11T09:24:15.695Z,5.56
2023-02-11T09:26:45.914Z,6.31
2023-02-11T09:29:14.211Z,7.03
2023-02-11T09:31:42.746Z,7.66
2023-02-11T09:34:12.464Z,8.17
2023-02-11T09:36:41.689Z,8.22
2023-02-11T09:39:14.798Z,8.24
2023-02-11T09:42:01.804Z,8.31
2023-02-11T09:44:33.893Z,8.22
2023-02-11T09:47:15.766Z,8.17
2023-02-11T09:50:10.238Z,8.24
2023-02-11T09:52:47.637Z,8.12
2023-02-11T09:55:25.192Z,7.97
2023-02-11T09:57:53.896Z,7.80
2023-02-11T10:00:33.678Z,7.68
2023-02-11T10:03:17.207Z,8.04
2023-02-11T10:05:56.744Z,8.45
2023-02-11T10:08:39.965Z,8.60
2023-02-11T10:11:31.739Z,8.60
2023-02-11T10:14:16.642Z,8.74
2023-02-11T10:16:50.965Z,8.72
2023-02-11T10:19:29.583Z,8.86
2023-02-11T10:22:09.948Z,8.69
2023-02-11T10:24:38.900Z,8.38
2023-02-11T10:27:17.674Z,8.24
2023-02-11T10:29:52.692Z,7.98
2023-02-11T10:32:38.889Z,7.77
2023-02-11T10:35:18.220Z,7.55
2023-02-11T10:37:47.133Z,7.39
2023-02-11T10:40:18.556Z,7.14
2023-02-11T10:42:54.352Z,6.78
2023-02-11T10:45:27.515Z,6.56
2023-02-11T10:47:56.304Z,6.37
2023-02-11T10:50:28.786Z,6.48
2023-02-11T10:53:15.661Z,6.58
2023-02-11T10:55:54.322Z,6.64
2023-02-11T10:58:31.111Z,6.79
2023-02-11T11:01:00.671Z,6.96
2023-02-11T11:03:39.175Z,7.21
2023-02-11T11:06:09.849Z,7.46
2023-02-11T11:08:51.131Z,7.56
2023-02-11T11:11:22.382Z,7.89
2023-02-11T11:13:53.449Z,8.31
2023-02-11T11:16:25.494Z,8.84
2023-02-11T11:19:21.770Z,9.55
2023-02-11T11:21:56.442Z,9.78
2023-02-11T11:24:40.483Z,9.67
2023-02-11T11:27:17.056Z,9.57
2023-02-11T11:29:52.113Z,9.29
2023-02-11T11:32:40.049Z,9.51
2023-02-11T11:35:23.856Z,10.08
2023-02-11T11:37:54.499Z,10.56
2023-02-11T11:40:27.331Z,10.71
2023-02-11T11:43:23.159Z,10.76
2023-02-11T11:45:59.994Z,11.02
2023-02-11T11:48:46.153Z,11.18
2023-02-11T11:51:15.146Z,11.29
2023-02-11T11:54:05.131Z,11.56
2023-02-11T11:56:38.304Z,11.48
2023-02-11T11:59:16.595Z,11.03
2023-02-11T12:01:57.235Z,11.07
2023-02-11T12:04:40.631Z,11.32
2023-02-11T12:07:20.779Z,11.30
2023-02-11T12:10:23.234Z,11.28
2023-02-11T12:13:18.900Z,11.21
2023-02-11T12:15:57.455Z,10.94
2023-02-11T12:18:25.532Z,10.63
2023-02-11T12:21:21.548Z,10.36
2023-02-11T12:24:17.213Z,9.78
2023-02-11T12:27:28.523Z,9.33
2023-02-11T12:30:12.676Z,8.88
2023-02-11T12:32:59.058Z,8.63
2023-02-11T12:35:37.283Z,8.40
2023-02-11T12:38:12.228Z,8.11
2023-02-11T12:41:56.396Z,7.89
2023-02-11T12:45:02.153Z,7.63
2023-02-11T12:47:51.924Z,7.52
2023-02-11T12:50:35.762Z,7.38
2023-02-11T12:53:36.436Z,7.31
2023-02-11T12:56:23.493Z,7.17
2023-02-11T12:58:57.636Z,7.05
2023-02-11T13:01:37.140Z,6.99
2023-02-11T13:04:14.948Z,7.19
2023-02-11T13:06:54.692Z,7.42
2023-02-11T13:09:26.859Z,7.68
2023-02-11T13:11:59.241Z,8.13
2023-02-11T13:14:33.151Z,8.67
2023-02-11T13:17:04.917Z,9.36
2023-02-11T13:19:38.618Z,9.49
2023-02-11T13:22:12.942Z,8.99
2023-02-11T13:24:49.548Z,8.46
2023-02-11T13:27:20.453Z,7.96
2023-02-11T13:29:56.389Z,7.53
2023-02-11T13:32:24.703Z,7.18
2023-02-11T13:34:53.077Z,6.89
2023-02-11T13:37:38.653Z,6.61
2023-02-11T13:40:22.443Z,6.38
2023-02-11T13:42:59.563Z,6.22
2023-02-11T13:45:33.730Z,6.11
2023-02-11T13:48:05.972Z,6.07
2023-02-11T13:50:47.040Z,6.04
2023-02-11T13:53:17.259Z,5.93
2023-02-11T13:55:49.427Z,5.88
2023-02-11T13:58:33.786Z,5.86
2023-02-11T14:01:03.496Z,5.84
2023-02-11T14:03:53.470Z,5.88
2023-02-11T14:06:42.230Z,5.89
2023-02-11T14:09:10.503Z,5.87
2023-02-11T14:11:42.162Z,5.83
2023-02-11T14:14:26.052Z,5.76
2023-02-11T14:17:00.410Z,5.65
2023-02-11T14:19:33.763Z,5.59
2023-02-11T14:22:04.458Z,5.61
2023-02-11T14:24:32.534Z,5.61
2023-02-11T14:27:21.522Z,5.76
2023-02-11T14:29:58.309Z,6.03
2023-02-11T14:32:32.792Z,6.16
2023-02-11T14:35:31.977Z,6.03
2023-02-11T14:38:15.489Z,5.79
2023-02-11T14:40:52.373Z,5.58
2023-02-11T14:43:25.928Z,5.40
2023-02-11T14:45:58.034Z,5.27
2023-02-11T14:48:31.263Z,5.15
2023-02-11T14:51:02.501Z,5.05
2023-02-11T14:53:33.544Z,4.92
2023-02-11T14:56:01.727Z,4.80
2023-02-11T14:58:32.372Z,4.69
2023-02-11T15:01:06.682Z,4.57
2023-02-11T15:03:39.872Z,4.44
2023-02-11T15:06:24.423Z,4.32
2023-02-11T15:08:58.390Z,4.18
2023-02-11T15:11:30.508Z,4.07
2023-02-11T15:14:08.236Z,3.96
2023-02-11T15:16:42.190Z,3.84
2023-02-11T15:19:24.449Z,3.67
2023-02-11T15:21:53.846Z,3.51
2023-02-11T15:24:25.583Z,3.37
2023-02-11T15:27:00.827Z,3.21
2023-02-11T15:29:39.257Z,3.01
2023-02-11T15:32:10.490Z,2.86
2023-02-11T15:34:39.389Z,2.70
2023-02-11T15:37:08.282Z,2.56
2023-02-11T15:39:41.142Z,2.42
2023-02-11T15:42:26.546Z,2.26
2023-02-11T15:45:16.016Z,2.01
2023-02-11T15:47:50.634Z,1.79
2023-02-11T15:50:26.197Z,1.66
2023-02-11T15:52:56.611Z,1.53
2023-02-11T15:55:27.090Z,1.42
2023-02-11T15:57:58.197Z,1.30
2023-02-11T16:00:36.241Z,1.14
2023-02-11T16:03:05.205Z,0.99
2023-02-11T16:05:37.570Z,0.87
2023-02-11T16:08:26.219Z,0.72
2023-02-11T16:10:58.643Z,0.58
2023-02-11T16:13:28.545Z,0.49
2023-02-11T16:16:18.873Z,0.40
2023-02-11T16:19:04.821Z,0.31
2023-02-11T16:21:40.230Z,0.21
2023-02-11T16:24:36.135Z,0.10
2023-02-11T16:27:08.716Z,-0.02
2023-02-11T16:29:38.074Z,-0.13
2023-02-11T16:32:06.440Z,-0.23
2023-02-11T16:34:34.795Z,-0.30
2023-02-11T16:37:05.288Z,-0.36
2023-02-11T16:39:34.219Z,-0.41
2023-02-11T16:42:03.865Z,-0.45
2023-02-11T16:44:34.125Z,-0.51
2023-02-11T16:47:04.588Z,-0.57
2023-02-11T16:49:37.291Z,-0.61
2023-02-11T16:52:16.051Z,-0.65
2023-02-11T16:54:44.483Z,-0.70
2023-02-11T16:57:23.212Z,-0.78
2023-02-11T16:59:52.411Z,-0.89
2023-02-11T17:02:26.935Z,-0.95
2023-02-11T17:04:58.613Z,-0.98
2023-02-11T17:07:27.589Z,-1.01
2023-02-11T17:09:56.841Z,-1.04
2023-02-11T17:12:25.615Z,-1.07
2023-02-11T17:14:54.273Z,-1.11
2023-02-11T17:17:24.035Z,-1.15
2023-02-11T17:19:52.373Z,-1.19
2023-02-11T17:22:20.557Z,-1.24
2023-02-11T17:24:49.044Z,-1.30
2023-02-11T17:27:17.628Z,-1.37
2023-02-11T17:29:46.014Z,-1.42
2023-02-11T17:32:14.466Z,-1.46
2023-02-11T17:34:42.587Z,-1.50
2023-02-11T17:37:11.274Z,-1.53
2023-02-11T17:39:40.590Z,-1.55
2023-02-11T17:42:08.954Z,-1.61
2023-02-11T17:44:37.551Z,-1.67
2023-02-11T17:47:05.830Z,-1.70
2023-02-11T17:49:34.314Z,-1.75
2023-02-11T17:52:03.312Z,-1.77
2023-02-11T17:54:31.594Z,-1.78
2023-02-11T17:56:59.774Z,-1.81
2023-02-11T17:59:31.847Z,-1.86
2023-02-11T18:02:00.435Z,-1.92
2023-02-11T18:04:29.305Z,-1.97
2023-02-11T18:06:58.024Z,-2.01
2023-02-11T18:09:26.622Z,-2.05
2023-02-11T18:11:55.615Z,-2.08
2023-02-11T18:14:24.701Z,-2.09
2023-02-11T18:16:53.579Z,-2.12
2023-02-11T18:19:21.912Z,-2.13
2023-02-11T18:21:51.196Z,-2.11
2023-02-11T18:24:19.476Z,-2.10
2023-02-11T18:26:47.770Z,-2.10
2023-02-11T18:29:16.142Z,-2.11
2023-02-11T18:31:44.610Z,-2.12
2023-02-11T18:34:13.406Z,-2.12
2023-02-11T18:36:41.707Z,-2.14
2023-02-11T18:39:10.607Z,-2.13
2023-02-11T18:41:41.441Z,-2.12
2023-02-11T18:44:11.864Z,-2.11
2023-02-11T18:46:41.080Z,-2.10
2023-02-11T18:49:13.271Z,-2.10
2023-02-11T18:51:41.633Z,-2.08
2023-02-11T18:54:09.817Z,-2.07
2023-02-11T18:56:38.201Z,-2.07
2023-02-11T18:59:06.790Z,-2.07
2023-02-11T19:01:35.746Z,-2.06
2023-02-11T19:04:05.416Z,-2.06
2023-02-11T19:06:36.999Z,-2.05
2023-02-11T19:09:10.165Z,-2.02
2023-02-11T19:11:54.163Z,-1.98
2023-02-11T19:14:28.636Z,-1.96
2023-02-11T19:16:57.939Z,-1.95
2023-02-11T19:19:29.918Z,-1.94
2023-02-11T19:21:59.607Z,-1.94
2023-02-11T19:24:29.529Z,-1.95
2023-02-11T19:27:03.943Z,-1.93
2023-02-11T19:29:35.213Z,-1.90
2023-02-11T19:32:08.491Z,-1.88
2023-02-11T19:34:41.499Z,-1.86
2023-02-11T19:37:13.088Z,-1.84
2023-02-11T19:39:43.376Z,-1.84
2023-02-11T19:42:12.330Z,-1.83
2023-02-11T19:44:40.547Z,-1.82
2023-02-11T19:47:10.528Z,-1.79
2023-02-11T19:49:38.950Z,-1.78
2023-02-11T19:52:07.231Z,-1.76
2023-02-11T19:54:35.613Z,-1.75
2023-02-11T19:57:03.999Z,-1.75
2023-02-11T19:59:32.288Z,-1.73
2023-02-11T20:02:01.995Z,-1.67
2023-02-11T20:04:32.426Z,-1.58
2023-02-11T20:07:01.224Z,-1.47
2023-02-11T20:09:31.295Z,-1.34
2023-02-11T20:11:59.729Z,-1.20
2023-02-11T20:14:28.396Z,-1.08
2023-02-11T20:16:56.909Z,-0.98
2023-02-11T20:19:25.191Z,-0.88
2023-02-11T20:21:55.840Z,-0.78
2023-02-11T20:24:25.778Z,-0.70
2023-02-11T20:26:57.250Z,-0.65
2023-02-11T20:29:26.089Z,-0.60
2023-02-11T20:31:54.829Z,-0.56
2023-02-11T20:34:23.578Z,-0.52
2023-02-11T20:36:52.387Z,-0.48
2023-02-11T20:39:25.006Z,-0.48
2023-02-11T20:41:54.592Z,-0.52
2023-02-11T20:44:23.572Z,-0.58
2023-02-11T20:46:54.091Z,-0.63
2023-02-11T20:49:24.423Z,-0.63
2023-02-11T20:51:54.211Z,-0.59
2023-02-11T20:54:24.564Z,-0.54
2023-02-11T20:56:54.457Z,-0.51
2023-02-11T20:59:23.409Z,-0.49
2023-02-11T21:01:54.344Z,-0.48
2023-02-11T21:04:29.567Z,-0.46
2023-02-11T21:07:01.557Z,-0.48
2023-02-11T21:09:32.178Z,-0.49
2023-02-11T21:12:01.265Z,-0.50
2023-02-11T21:14:30.436Z,-0.52
2023-02-11T21:16:59.165Z,-0.55
2023-02-11T21:19:27.666Z,-0.55
2023-02-11T21:21:57.500Z,-0.55
2023-02-11T21:24:25.960Z,-0.57
2023-02-11T21:26:54.959Z,-0.56
2023-02-11T21:29:23.147Z,-0.58
2023-02-11T21:31:51.749Z,-0.59
2023-02-11T21:34:20.958Z,-0.59
2023-02-11T21:36:51.422Z,-0.59
2023-02-11T21:39:20.518Z,-0.60
2023-02-11T21:41:48.874Z,-0.59
2023-02-11T21:44:18.001Z,-0.60
2023-02-11T21:46:46.193Z,-0.59
2023-02-11T21:49:15.145Z,-0.58
2023-02-11T21:51:43.485Z,-0.56
2023-02-11T21:54:12.023Z,-0.55
2023-02-11T21:56:40.796Z,-0.54
2023-02-11T21:59:13.802Z,-0.52
2023-02-11T22:01:42.072Z,-0.53
2023-02-11T22:04:10.377Z,-0.53
2023-02-11T22:06:39.160Z,-0.52
2023-02-11T22:09:11.217Z,-0.51
2023-02-11T22:11:39.915Z,-0.51
2023-02-11T22:14:08.294Z,-0.49
2023-02-11T22:16:37.041Z,-0.46
2023-02-11T22:19:07.688Z,-0.43
2023-02-11T22:21:36.114Z,-0.41
2023-02-11T22:24:04.822Z,-0.39
2023-02-11T22:26:33.080Z,-0.37
2023-02-11T22:29:01.468Z,-0.35
2023-02-11T22:31:33.094Z,-0.33
2023-02-11T22:34:03.237Z,-0.32
2023-02-11T22:36:41.798Z,-0.30
2023-02-11T22:39:16.483Z,-0.27
2023-02-11T22:41:46.405Z,-0.25
2023-02-11T22:44:17.373Z,-0.24
2023-02-11T22:46:45.838Z,-0.23
2023-02-11T22:49:16.043Z,-0.23
2023-02-11T22:51:45.278Z,-0.21
2023-02-11T22:54:19.375Z,-0.20
2023-02-11T22:56:51.379Z,-0.18
2023-02-11T22:59:20.608Z,-0.14
2023-02-11T23:01:49.143Z,-0.11
2023-02-11T23:04:19.574Z,-0.06
2023-02-11T23:06:48.666Z,-0.03
2023-02-11T23:09:17.049Z,0.00
2023-02-11T23:11:47.178Z,0.03
2023-02-11T23:14:15.861Z,0.08
2023-02-11T23:16:44.111Z,0.12
2023-02-11T23:19:13.040Z,0.13
2023-02-11T23:21:41.535Z,0.10
2023-02-11T23:24:15.613Z,0.10
2023-02-11T23:26:44.169Z,0.10
2023-02-11T23:29:13.034Z,0.09
2023-02-11T23:31:46.255Z,0.11
2023-02-11T23:34:20.444Z,0.13
2023-02-11T23:36:48.529Z,0.14
2023-02-11T23:39:21.677Z,0.14
2023-02-11T23:41:52.549Z,0.16
2023-02-11T23:44:20.839Z,0.17
2023-02-11T23:46:49.118Z,0.17
2023-02-11T23:49:17.510Z,0.17
2023-02-11T23:51:45.995Z,0.18
2023-02-11T23:54:15.102Z,0.19
2023-02-11T23:56:43.794Z,0.20
2023-02-11T23:59:12.477Z,0.21
